AirNav  
 
 461 users online  

ND33 Dawson Mediport Heliport
Dawson, North Dakota, USA


FAA INFORMATION EFFECTIVE 09 NOVEMBER 2017

Location

FAA Identifier: ND33
Lat/Long: 46-52-36.0000N / 099-45-08.4000W
46-52.600000N / 099-45.140000W
46.8766667 / -99.7523333
(estimated)
Elevation: 1750 ft. / 533 m (estimated)
Variation: 08E (2000)
Time zone: UTC -6 (UTC -5 during Daylight Saving Time)
Zip code: 58428

Heliport Operations

Heliport use: Private use. Permission required prior to landing
Activation date: 11/2002
Control tower: no
ARTCC: MINNEAPOLIS CENTER
FSS: GRAND FORKS FLIGHT SERVICE STATION
Attendance: UNATNDD
Segmented circle: no

Nearby radio navigation aids

VOR radial/distance  VOR name  Freq  Var
BISr068/38.1BISMARCK VOR/DME116.5012E

Heliport Services

Runway Information

Helipad H1

Dimensions: 30 x 30 ft. / 9 x 9 m
Surface: asphalt
Traffic pattern: leftleft

Heliport Ownership and Management from official FAA records

Ownership: Privately-owned
Owner: DAWSON FIRST RESPONDER TEM
P.O. BOX 214
DAWSON, ND 58428
Phone 701-327-4434
Manager: MISTY ISZLER
PO BOX 201, P.O. BOX 214
DAWSON, ND 58428
Phone (701) 214-9109

Instrument Procedures

There are no published instrument procedures at ND33.

Some nearby airports with instrument procedures:

KBIS - Bismarck Municipal Airport (41 nm W)
46D - Carrington Municipal Airport (42 nm NE)
KJMS - Jamestown Regional Airport (44 nm E)
7L2 - Linton Municipal Airport (44 nm SW)
Y19 - Mandan Municipal Airport (47 nm W)
 
Loc | Ops | Rwys | IFR | FBO | Links
Com | Nav | Svcs | Stats | Notes


 
Area around ND33 (Dawson Mediport Heliport)
 
Road maps at: MapQuest Bing Google
 
Aerial photo
No photo
 
Sectional chart

 
Airport distance calculator
Flying to Dawson Mediport Heliport? Find the distance to fly.

From to ND33

Sunrise and sunset
Times for 23-Nov-2017
 Local
(UTC-6)
 Zulu
(UTC)
Morning civil twilight07:2113:21
Sunrise07:5413:54
Sunset16:5722:57
Evening civil twilight17:3023:30

Current date and time
Zulu (UTC)  23-Nov-2017 12:55:48
Local (UTC-6)  23-Nov-2017 06:55:48
 
METAR
KBIS 
41nm W 
231152Z AUTO 08005KT 10SM CLR M03/M06 A2986 RMK AO2 SLP125 I6000 T10331056 11022 21050 58028 $
K46D 
42nm NE 
231235Z AUTO 14006KT 10SM FEW070 M04/M05 A2985 RMK AO2
K7L2 
44nm SW 
231235Z AUTO 13010KT 10SM M03/M05 A2988 RMK AO2
KJMS 
45nm E 
231156Z AUTO 18006KT 10SM CLR M06/M07 A2988 RMK AO2 SLP139 T10561067 11017 21067 56017
KY19 
47nm W 
231235Z AUTO 19011KT 10SM CLR M01/M01 A2983 RMK AO2
TAF
KBIS 
41nm W 
231141Z 2312/2412 09004KT P6SM SCT300 FM231400 19004KT P6SM BKN250 FM231700 25008KT P6SM SCT200 FM232100 24007KT P6SM SCT110 SCT150 FM240100 25006KT P6SM FEW130 FM240900 27015G22KT P6SM SCT090 BKN110
KJMS 
45nm E 
231148Z 2312/2412 20004KT P6SM FEW070 FEW300 FM231500 22008KT P6SM BKN250 FM232200 23009KT P6SM SCT200 FM240200 23010KT P6SM FEW140 FM240900 26015G20KT P6SM BKN110
NOTAMs
Click for the latest NOTAMs
NOTAMs are issued by the DoD/FAA and will open in a separate window not controlled by AirNav.

 

 
 

Would you like to see your business listed on this page?

 If your business provides an interesting product or service to pilots, flight crews, aircraft, or users of the Dawson Mediport Heliport, you should consider listing it here.  To start the listing process, click on the button below
 
Add a business
 

Other Pages about Dawson Mediport Heliport

Update a link
 
Copyright © AirNav, LLC. All rights reserved. Privacy Policy  Contact